Time;durP1;ratioP1;P1;durP2;ratioP2;P2;SDS_P1;SDS_P2;PMS_P1;PMS_P2;Temp;Humidity;BMP_temperature;BMP_pressure;BME280_temperature;BME280_humidity;BME280_pressure;Samples;Min_cycle;Max_cycle;Signal;HPM_P1;HPM_P2
2020/12/27 00:05:44;;;;;;;3.87;2.70;;;;;;;;;;5025470;28;20147;-55
2020/12/27 00:08:23;;;;;;;5.00;3.10;;;;;;;;;;5066995;28;20021;-56
2020/12/27 00:11:13;;;;;;;3.67;2.50;;;;;;;;;;5066706;28;20063;-56
2020/12/27 00:13:48;;;;;;;3.70;3.10;;;;;;;;;;5064680;28;20071;-55
2020/12/27 00:16:42;;;;;;;10.47;4.27;;;;;;;;;;5066841;28;20040;-54
2020/12/27 00:19:34;;;;;;;4.93;2.63;;;;;;;;;;5067142;28;20465;-54
2020/12/27 00:22:22;;;;;;;3.53;3.00;;;;;;;;;;5066405;28;20107;-55
2020/12/27 00:25:07;;;;;;;4.03;2.60;;;;;;;;;;5066599;28;20031;-57
2020/12/27 00:31:00;;;;;;;5.77;3.27;;;;;;;;;;5060823;28;20051;-55
2020/12/27 00:33:50;;;;;;;3.23;2.60;;;;;;;;;;5065077;28;20033;-56
2020/12/27 00:36:27;;;;;;;5.37;2.87;;;;;;;;;;5066576;28;20025;-56
2020/12/27 00:39:06;;;;;;;3.33;2.63;;;;;;;;;;5066496;28;20478;-51
2020/12/27 00:42:18;;;;;;;4.23;2.77;;;;;;;;;;5083512;28;20044;-55
2020/12/27 00:47:38;;;;;;;6.40;3.60;;;;;;;;;;5084329;28;20047;-58
2020/12/27 00:53:08;;;;;;;5.40;3.03;;;;;;;;;;5083704;28;20067;-59
2020/12/27 00:58:54;;;;;;;6.53;2.70;;;;;;;;;;5056316;28;20105;-56
2020/12/27 01:01:42;;;;;;;4.47;3.43;;;;;;;;;;5084191;28;20167;-56
2020/12/27 01:10:04;;;;;;;10.53;3.23;;;;;;;;;;5066528;28;20024;-57
2020/12/27 01:15:43;;;;;;;5.28;3.50;;;;;;;;;;5056929;28;20033;-53
2020/12/27 01:18:47;;;;;;;10.20;2.87;;;;;;;;;;5070284;28;20059;-57
2020/12/27 01:21:12;;;;;;;6.10;3.27;;;;;;;;;;5066598;28;20076;-59
2020/12/27 01:23:49;;;;;;;7.00;3.07;;;;;;;;;;5068896;28;20060;-57
2020/12/27 01:26:46;;;;;;;4.53;3.23;;;;;;;;;;5069129;28;20435;-55
2020/12/27 01:29:34;;;;;;;5.03;3.13;;;;;;;;;;5069088;28;20112;-59
2020/12/27 01:32:21;;;;;;;8.80;3.30;;;;;;;;;;5069221;28;20028;-58
2020/12/27 01:35:19;;;;;;;3.93;2.57;;;;;;;;;;5070264;28;20037;-57
2020/12/27 01:41:07;;;;;;;5.07;2.87;;;;;;;;;;5069833;28;20057;-53
2020/12/27 01:44:06;;;;;;;4.40;2.50;;;;;;;;;;5068650;28;20036;-56
2020/12/27 01:47:03;;;;;;;5.87;3.37;;;;;;;;;;5007306;28;20042;-55
2020/12/27 01:50:11;;;;;;;2.77;2.20;;;;;;;;;;5009538;28;20031;-58
2020/12/27 01:52:43;;;;;;;5.47;2.67;;;;;;;;;;5006375;28;20046;-55
2020/12/27 01:58:51;;;;;;;3.87;2.70;;;;;;;;;;5035242;28;20093;-58
2020/12/27 02:01:41;;;;;;;4.37;3.17;;;;;;;;;;5018654;28;20067;-57
2020/12/27 02:04:26;;;;;;;4.13;2.47;;;;;;;;;;5059482;28;20041;-56
2020/12/27 02:06:53;;;;;;;8.80;3.83;;;;;;;;;;5069381;28;20037;-57
2020/12/27 02:09:36;;;;;;;4.60;2.77;;;;;;;;;;5069348;28;20035;-59
2020/12/27 02:12:16;;;;;;;4.07;2.43;;;;;;;;;;5066914;28;20056;-57
2020/12/27 02:15:11;;;;;;;4.82;3.40;;;;;;;;;;5069739;28;20045;-55
2020/12/27 02:17:57;;;;;;;5.60;4.83;;;;;;;;;;5069031;28;20096;-55
2020/12/27 02:20:53;;;;;;;3.30;2.37;;;;;;;;;;5065246;28;20033;-56
2020/12/27 02:26:12;;;;;;;8.47;2.80;;;;;;;;;;5068343;28;20509;-58
2020/12/27 02:28:58;;;;;;;5.73;3.20;;;;;;;;;;5068979;28;20582;-58
2020/12/27 02:31:40;;;;;;;3.37;2.27;;;;;;;;;;5068944;28;20025;-58
2020/12/27 02:34:38;;;;;;;5.73;2.90;;;;;;;;;;5067531;28;20029;-58
2020/12/27 02:37:36;;;;;;;5.40;3.63;;;;;;;;;;5065739;28;20045;-58
2020/12/27 02:40:53;;;;;;;5.00;2.93;;;;;;;;;;5046183;28;20083;-56
2020/12/27 02:43:50;;;;;;;4.10;2.97;;;;;;;;;;5045575;28;20042;-57
2020/12/27 02:46:53;;;;;;;3.57;2.77;;;;;;;;;;5042697;28;20087;-58
2020/12/27 02:49:48;;;;;;;7.07;3.23;;;;;;;;;;5046829;28;20022;-55
2020/12/27 02:52:18;;;;;;;3.87;2.37;;;;;;;;;;5067514;28;20033;-58
2020/12/27 02:54:53;;;;;;;4.40;3.00;;;;;;;;;;5068510;28;20593;-55
2020/12/27 02:57:29;;;;;;;3.87;2.93;;;;;;;;;;5067714;28;20032;-59
2020/12/27 03:00:18;;;;;;;4.77;3.60;;;;;;;;;;5068569;28;20085;-54
2020/12/27 03:03:12;;;;;;;5.47;2.97;;;;;;;;;;5067473;28;20037;-59
2020/12/27 03:05:57;;;;;;;4.37;3.17;;;;;;;;;;5067052;28;20102;-56
2020/12/27 03:08:56;;;;;;;3.77;2.40;;;;;;;;;;5068291;28;20036;-53
2020/12/27 03:11:34;;;;;;;3.63;2.63;;;;;;;;;;5068197;28;20021;-59
2020/12/27 03:14:11;;;;;;;4.53;3.53;;;;;;;;;;5067150;28;20097;-58
2020/12/27 03:17:04;;;;;;;3.13;2.80;;;;;;;;;;5067969;28;20040;-59
2020/12/27 03:19:49;;;;;;;4.10;2.73;;;;;;;;;;5044520;28;20092;-57
2020/12/27 03:22:36;;;;;;;4.37;3.30;;;;;;;;;;5066687;28;20044;-58
2020/12/27 03:25:35;;;;;;;5.93;3.80;;;;;;;;;;5068429;28;20064;-56
2020/12/27 03:31:38;;;;;;;;;;;;;;;;;;;;;
2020/12/27 03:37:21;;;;;;;6.97;3.40;;;;;;;;;;5059045;28;20474;-58
2020/12/27 03:39:54;;;;;;;4.20;2.85;;;;;;;;;;5067674;28;20028;-57
2020/12/27 03:42:32;;;;;;;5.40;3.43;;;;;;;;;;5066152;28;20093;-57
2020/12/27 03:45:41;;;;;;;;;;;;;;;;;;;;;
2020/12/27 03:48:49;;;;;;;5.73;3.73;;;;;;;;;;5067328;28;20127;-58
2020/12/27 03:51:25;;;;;;;4.67;3.27;;;;;;;;;;5066914;28;20031;-56
2020/12/27 04:00:03;;;;;;;3.80;2.93;;;;;;;;;;5068071;28;20060;-58
2020/12/27 04:03:04;;;;;;;4.37;3.83;;;;;;;;;;5065112;28;20029;-59
2020/12/27 04:05:58;;;;;;;13.98;4.60;;;;;;;;;;5067819;28;20112;-59
2020/12/27 04:17:59;;;;;;;4.13;3.17;;;;;;;;;;5066596;28;20092;-57
2020/12/27 04:20:46;;;;;;;4.23;3.50;;;;;;;;;;5066762;28;20036;-58
2020/12/27 04:23:34;;;;;;;4.77;2.83;;;;;;;;;;5064990;28;20036;-55
2020/12/27 04:26:19;;;;;;;6.80;4.03;;;;;;;;;;5067081;28;20025;-55
2020/12/27 04:38:50;;;;;;;4.80;3.30;;;;;;;;;;5010765;28;20041;-58
2020/12/27 04:41:55;;;;;;;4.23;3.83;;;;;;;;;;5046182;28;20031;-57
2020/12/27 04:48:31;;;;;;;;;;;;;;;;;;;;;
2020/12/27 04:54:42;;;;;;;5.90;3.37;;;;;;;;;;5015398;28;20045;-55
2020/12/27 04:57:12;;;;;;;4.50;2.63;;;;;;;;;;5040974;28;20044;-59
2020/12/27 04:59:55;;;;;;;7.33;3.50;;;;;;;;;;5051494;28;20581;-56
2020/12/27 05:02:42;;;;;;;3.37;2.43;;;;;;;;;;5052253;28;20029;-58
2020/12/27 05:05:28;;;;;;;6.13;3.83;;;;;;;;;;5052115;28;20024;-59
2020/12/27 05:11:32;;;;;;;3.63;2.73;;;;;;;;;;5045085;28;20120;-58
2020/12/27 05:14:36;;;;;;;4.67;3.47;;;;;;;;;;5050802;28;20544;-57
2020/12/27 05:23:37;;;;;;;4.80;3.13;;;;;;;;;;5050279;28;20049;-56
2020/12/27 05:26:13;;;;;;;5.63;2.80;;;;;;;;;;5009779;28;20057;-56
2020/12/27 05:28:57;;;;;;;4.47;3.37;;;;;;;;;;5030518;28;20029;-58
2020/12/27 05:34:49;;;;;;;3.43;2.37;;;;;;;;;;4976126;28;20054;-58
2020/12/27 05:37:23;;;;;;;6.00;4.40;;;;;;;;;;5024033;28;20475;-57
2020/12/27 05:43:11;;;;;;;2.90;2.30;;;;;;;;;;5050974;28;20189;-58
2020/12/27 05:45:40;;;;;;;3.17;2.60;;;;;;;;;;5080713;28;20501;-56
2020/12/27 05:51:27;;;;;;;4.57;2.73;;;;;;;;;;5049245;28;20116;-58
2020/12/27 05:54:06;;;;;;;3.70;2.07;;;;;;;;;;5050925;28;20355;-59
2020/12/27 05:56:58;;;;;;;4.47;3.30;;;;;;;;;;5033862;28;20049;-58
2020/12/27 05:59:55;;;;;;;4.10;2.53;;;;;;;;;;5033594;28;20064;-57
2020/12/27 06:12:20;;;;;;;1.90;1.70;;;;;;;;;;4982646;28;20782;-55
2020/12/27 06:15:08;;;;;;;5.70;3.33;;;;;;;;;;5052169;28;20041;-58
2020/12/27 06:17:57;;;;;;;4.07;3.60;;;;;;;;;;5052358;28;20511;-55
2020/12/27 06:21:01;;;;;;;5.30;3.53;;;;;;;;;;5053528;28;20028;-55
2020/12/27 06:27:27;;;;;;;5.07;3.23;;;;;;;;;;5024278;28;20037;-58
2020/12/27 06:33:29;;;;;;;5.00;2.80;;;;;;;;;;4973510;28;20635;-58
2020/12/27 06:36:24;;;;;;;5.17;4.17;;;;;;;;;;4974589;28;20531;-58
2020/12/27 06:39:16;;;;;;;3.73;2.73;;;;;;;;;;4997799;28;20498;-58
2020/12/27 06:48:37;;;;;;;9.88;4.43;;;;;;;;;;5011133;28;20034;-56
2020/12/27 06:51:33;;;;;;;5.63;3.47;;;;;;;;;;5063886;28;20037;-55
2020/12/27 06:54:18;;;;;;;4.07;3.20;;;;;;;;;;5034200;28;20061;-57
2020/12/27 06:57:13;;;;;;;5.30;3.77;;;;;;;;;;5006975;28;20164;-55
2020/12/27 06:59:47;;;;;;;6.47;4.20;;;;;;;;;;5034508;28;20033;-55
2020/12/27 07:02:28;;;;;;;5.43;3.53;;;;;;;;;;5034480;28;20379;-54
2020/12/27 07:08:10;;;;;;;3.80;2.47;;;;;;;;;;4980986;28;19905;-56
2020/12/27 07:10:53;;;;;;;22.27;3.25;;;;;;;;;;5056090;28;20036;-56
2020/12/27 07:14:03;;;;;;;6.30;4.27;;;;;;;;;;5054804;28;20488;-54
2020/12/27 07:17:01;;;;;;;3.77;2.90;;;;;;;;;;5054048;28;20025;-55
2020/12/27 07:20:15;;;;;;;4.80;3.63;;;;;;;;;;5054556;28;20055;-56
2020/12/27 07:26:02;;;;;;;3.97;2.77;;;;;;;;;;5031380;28;20048;-56
2020/12/27 07:29:01;;;;;;;5.60;4.03;;;;;;;;;;5031643;28;20042;-57
2020/12/27 07:31:43;;;;;;;5.40;4.00;;;;;;;;;;5033332;28;20072;-55
2020/12/27 07:34:20;;;;;;;4.63;2.87;;;;;;;;;;5013854;28;20088;-57
2020/12/27 07:36:59;;;;;;;5.13;3.50;;;;;;;;;;5026760;28;20037;-54
2020/12/27 07:39:50;;;;;;;4.97;3.43;;;;;;;;;;5034355;28;20040;-57
2020/12/27 07:51:52;;;;;;;7.40;4.23;;;;;;;;;;5011351;28;20077;-56
2020/12/27 07:57:45;;;;;;;;;;;;;;;;;;;;;
2020/12/27 08:00:34;;;;;;;;;;;;;;;;;;;;;
2020/12/27 08:03:10;;;;;;;5.63;4.20;;;;;;;;;;5011073;28;20024;-54
2020/12/27 08:12:01;;;;;;;5.80;3.80;;;;;;;;;;5044122;28;20069;-56
2020/12/27 08:14:39;;;;;;;7.93;4.37;;;;;;;;;;5063133;28;20033;-57
2020/12/27 08:23:10;;;;;;;3.33;2.92;;;;;;;;;;5052681;28;20122;-57
2020/12/27 08:25:45;;;;;;;3.83;2.90;;;;;;;;;;5054815;28;20048;-57
2020/12/27 08:28:37;;;;;;;4.50;3.50;;;;;;;;;;5088723;28;20025;-57
2020/12/27 08:34:29;;;;;;;5.93;3.73;;;;;;;;;;5049039;28;20059;-54
2020/12/27 08:37:14;;;;;;;4.73;3.50;;;;;;;;;;5059868;28;20033;-57
2020/12/27 08:40:04;;;;;;;4.27;3.87;;;;;;;;;;5066239;28;20044;-53
2020/12/27 08:42:30;;;;;;;;;;;;;;;;;;5065820;28;20084;-58
2020/12/27 08:45:38;;;;;;;5.90;2.70;;;;;;;;;;5067257;28;19904;-56
2020/12/27 08:54:29;;;;;;;7.17;3.50;;;;;;;;;;5065320;28;20055;-57
2020/12/27 08:57:18;;;;;;;3.13;2.67;;;;;;;;;;5019375;28;20052;-58
2020/12/27 09:00:03;;;;;;;4.33;3.37;;;;;;;;;;5065739;28;20032;-55
2020/12/27 09:02:36;;;;;;;4.70;3.47;;;;;;;;;;5041981;28;20037;-55
2020/12/27 09:05:10;;;;;;;3.40;2.97;;;;;;;;;;5043478;28;20073;-55
2020/12/27 09:08:02;;;;;;;4.80;3.23;;;;;;;;;;5071721;28;20685;-57
2020/12/27 09:10:39;;;;;;;5.93;3.80;;;;;;;;;;5048766;28;20029;-58
2020/12/27 09:13:23;;;;;;;4.13;3.33;;;;;;;;;;5064503;28;20041;-57
2020/12/27 09:15:52;;;;;;;2.30;1.87;;;;;;;;;;5065885;28;20445;-58
2020/12/27 09:18:37;;;;;;;4.57;2.67;;;;;;;;;;5060289;28;20079;-56
2020/12/27 09:21:22;;;;;;;5.77;3.10;;;;;;;;;;5059513;28;20035;-54
2020/12/27 09:24:11;;;;;;;6.83;3.30;;;;;;;;;;5064273;28;20029;-58
2020/12/27 09:27:13;;;;;;;4.10;2.90;;;;;;;;;;5066050;28;20052;-56
2020/12/27 09:30:07;;;;;;;3.30;2.97;;;;;;;;;;5003781;28;20041;-58
2020/12/27 09:32:47;;;;;;;4.67;3.20;;;;;;;;;;5049495;28;20076;-57
2020/12/27 09:38:23;;;;;;;3.57;2.93;;;;;;;;;;5055207;28;20101;-58
2020/12/27 09:44:38;;;;;;;4.40;3.27;;;;;;;;;;5054593;28;20684;-59
2020/12/27 09:50:35;;;;;;;3.50;2.47;;;;;;;;;;5051127;28;20033;-56
2020/12/27 09:53:20;;;;;;;5.07;3.07;;;;;;;;;;5036279;28;20033;-58
2020/12/27 09:55:58;;;;;;;5.33;3.23;;;;;;;;;;5036229;28;20034;-58
2020/12/27 09:58:39;;;;;;;5.33;3.30;;;;;;;;;;5065877;28;20108;-58
2020/12/27 10:01:44;;;;;;;5.57;3.67;;;;;;;;;;5074977;28;20428;-57
2020/12/27 10:04:45;;;;;;;4.70;3.23;;;;;;;;;;4992917;28;20531;-57
2020/12/27 10:07:26;;;;;;;6.70;2.60;;;;;;;;;;4954782;28;20026;-57
2020/12/27 10:13:19;;;;;;;6.20;2.83;;;;;;;;;;5032754;28;20558;-57
2020/12/27 10:16:19;;;;;;;10.40;3.50;;;;;;;;;;5033749;28;20043;-57
2020/12/27 10:18:51;;;;;;;8.50;4.40;;;;;;;;;;5008053;28;20046;-57
2020/12/27 10:21:34;;;;;;;7.43;4.33;;;;;;;;;;5033331;28;20025;-57
2020/12/27 10:24:06;;;;;;;5.80;3.40;;;;;;;;;;5025317;28;20479;-57
2020/12/27 10:26:51;;;;;;;5.97;3.30;;;;;;;;;;5036338;28;20487;-57
2020/12/27 10:29:44;;;;;;;5.13;3.60;;;;;;;;;;5032964;28;20364;-57
2020/12/27 10:32:37;;;;;;;5.40;4.00;;;;;;;;;;4999209;28;20132;-57
2020/12/27 10:35:39;;;;;;;8.70;4.27;;;;;;;;;;5049313;28;20541;-57
2020/12/27 10:41:21;;;;;;;4.97;3.90;;;;;;;;;;5012957;28;19978;-54
2020/12/27 10:43:59;;;;;;;7.50;4.17;;;;;;;;;;5039930;28;20017;-58
2020/12/27 10:52:52;;;;;;;5.23;3.10;;;;;;;;;;4982757;28;20038;-56
2020/12/27 10:55:50;;;;;;;6.43;3.83;;;;;;;;;;5043935;28;20033;-56
2020/12/27 10:58:29;;;;;;;7.47;4.40;;;;;;;;;;5055761;28;20433;-54
2020/12/27 11:01:26;;;;;;;5.60;4.13;;;;;;;;;;5039293;28;20120;-57
2020/12/27 11:13:32;;;;;;;;;;;;;;;;;;;;;
2020/12/27 11:16:37;;;;;;;6.43;4.30;;;;;;;;;;5074717;28;20413;-59
2020/12/27 11:19:32;;;;;;;5.47;4.67;;;;;;;;;;5073815;28;20538;-57
2020/12/27 11:22:25;;;;;;;4.90;3.73;;;;;;;;;;5061967;28;20029;-58
2020/12/27 11:25:04;;;;;;;7.00;5.20;;;;;;;;;;5054309;28;20091;-57
2020/12/27 11:27:33;;;;;;;11.80;5.73;;;;;;;;;;5052502;28;20498;-58
2020/12/27 11:30:05;;;;;;;5.93;4.50;;;;;;;;;;5052257;28;20029;-56
2020/12/27 11:35:58;;;;;;;7.00;4.93;;;;;;;;;;5050363;28;20079;-59
2020/12/27 11:44:44;;;;;;;6.00;5.03;;;;;;;;;;5058944;28;20040;-57
2020/12/27 11:50:36;;;;;;;6.47;5.72;;;;;;;;;;5025503;28;20025;-55
2020/12/27 11:56:20;;;;;;;6.60;5.00;;;;;;;;;;5034516;28;20032;-56
2020/12/27 12:02:26;;;;;;;6.50;5.70;;;;;;;;;;5037305;28;20064;-59
2020/12/27 12:05:11;;;;;;;7.43;6.37;;;;;;;;;;4972513;28;20073;-56
2020/12/27 12:07:54;;;;;;;10.20;6.47;;;;;;;;;;4972523;28;20050;-58
2020/12/27 12:10:57;;;;;;;;;;;;;;;;;;;;;
2020/12/27 12:13:46;;;;;;;7.07;5.70;;;;;;;;;;5051082;28;20075;-57
2020/12/27 12:16:38;;;;;;;10.93;6.70;;;;;;;;;;5073430;28;20382;-58
2020/12/27 12:19:16;;;;;;;7.43;5.90;;;;;;;;;;5048816;28;20041;-58
2020/12/27 12:22:00;;;;;;;7.23;5.13;;;;;;;;;;5016936;28;20037;-58
2020/12/27 12:37:23;;;;;;;7.40;5.20;;;;;;;;;;5000678;28;20100;-58
2020/12/27 12:40:13;;;;;;;9.33;4.57;;;;;;;;;;5010635;28;20030;-58
2020/12/27 12:42:38;;;;;;;6.20;3.87;;;;;;;;;;5051385;28;20025;-59
2020/12/27 12:48:06;;;;;;;6.33;4.90;;;;;;;;;;5047945;28;20037;-55
2020/12/27 12:50:54;;;;;;;6.53;4.87;;;;;;;;;;5027049;28;20482;-55
2020/12/27 12:53:48;;;;;;;;;;;;;;;;;;;;;
2020/12/27 12:56:47;;;;;;;;;;;;;;;;;;;;;
2020/12/27 12:59:40;;;;;;;7.40;4.47;;;;;;;;;;5047784;28;20037;-59
2020/12/27 13:02:24;;;;;;;7.60;4.50;;;;;;;;;;5034595;28;20029;-58
2020/12/27 13:05:26;;;;;;;5.03;4.03;;;;;;;;;;5040008;28;20427;-58
2020/12/27 13:08:19;;;;;;;4.87;3.83;;;;;;;;;;5053103;28;20528;-58
2020/12/27 13:10:58;;;;;;;5.77;4.03;;;;;;;;;;5064745;28;20036;-58
2020/12/27 13:13:43;;;;;;;4.97;3.87;;;;;;;;;;5055539;28;20078;-58
2020/12/27 13:16:40;;;;;;;;;;;;;;;;;;;;;
2020/12/27 13:19:48;;;;;;;;;;;;;;;;;;;;;
2020/12/27 13:22:30;;;;;;;5.50;3.73;;;;;;;;;;5069968;28;20289;-58
2020/12/27 13:25:01;;;;;;;;;;;;;;;;;;5074107;28;20454;-58
2020/12/27 13:31:03;;;;;;;6.13;3.77;;;;;;;;;;5045649;28;20443;-56
2020/12/27 13:42:23;;;;;;;5.00;4.07;;;;;;;;;;5013359;28;20041;-58
2020/12/27 13:45:01;;;;;;;4.17;3.53;;;;;;;;;;5059496;28;20029;-58
2020/12/27 13:48:02;;;;;;;4.27;3.33;;;;;;;;;;5074215;28;20024;-57
2020/12/27 13:50:39;;;;;;;5.67;3.77;;;;;;;;;;5058141;28;20037;-58
2020/12/27 13:53:30;;;;;;;6.67;3.50;;;;;;;;;;5063944;28;20215;-57
2020/12/27 13:56:05;;;;;;;5.00;3.22;;;;;;;;;;5065168;28;20513;-57
2020/12/27 14:01:31;;;;;;;5.33;3.13;;;;;;;;;;5042017;28;20458;-58
2020/12/27 14:04:26;;;;;;;;;;;;;;;;;;;;;
2020/12/27 14:07:31;;;;;;;4.83;3.37;;;;;;;;;;5074398;28;20028;-58
2020/12/27 14:09:58;;;;;;;4.43;2.87;;;;;;;;;;5050005;28;20071;-58
2020/12/27 14:12:48;;;;;;;5.50;3.33;;;;;;;;;;5066158;28;20037;-58
2020/12/27 14:15:55;;;;;;;4.25;3.30;;;;;;;;;;5051195;28;20091;-57
2020/12/27 14:21:48;;;;;;;5.50;3.00;;;;;;;;;;4995819;28;20030;-58
2020/12/27 14:24:36;;;;;;;5.03;3.07;;;;;;;;;;5073047;28;20036;-58
2020/12/27 14:27:24;;;;;;;4.83;3.27;;;;;;;;;;5040841;28;20044;-58
2020/12/27 14:29:50;;;;;;;6.70;3.43;;;;;;;;;;5035213;28;20095;-57
2020/12/27 14:32:44;;;;;;;6.43;4.10;;;;;;;;;;5050535;28;20370;-59
2020/12/27 14:35:20;;;;;;;5.43;3.20;;;;;;;;;;5050697;28;20495;-59
2020/12/27 14:38:34;;;;;;;6.90;3.80;;;;;;;;;;5052644;28;20033;-57
2020/12/27 14:41:12;;;;;;;6.33;3.30;;;;;;;;;;4973204;28;20467;-56
2020/12/27 14:47:39;;;;;;;7.47;3.03;;;;;;;;;;4973756;28;20504;-60
2020/12/27 14:49:55;;;;;;;5.50;3.50;;;;;;;;;;4960960;28;20043;-54
2020/12/27 14:52:32;;;;;;;5.10;3.30;;;;;;;;;;5016781;28;20045;-57
2020/12/27 14:55:17;;;;;;;4.17;3.10;;;;;;;;;;5072602;28;20509;-59
2020/12/27 14:57:53;;;;;;;5.57;3.70;;;;;;;;;;5051270;28;20204;-58
2020/12/27 15:06:51;;;;;;;5.03;3.10;;;;;;;;;;5043983;28;20390;-57
2020/12/27 15:09:31;;;;;;;8.20;3.67;;;;;;;;;;5054387;28;20086;-58
2020/12/27 15:12:19;;;;;;;4.80;2.80;;;;;;;;;;5053642;28;20104;-57
2020/12/27 15:15:07;;;;;;;4.43;2.90;;;;;;;;;;5059977;28;20546;-57
2020/12/27 15:17:46;;;;;;;3.80;2.97;;;;;;;;;;5053329;28;20111;-58
2020/12/27 15:27:06;;;;;;;2.67;2.17;;;;;;;;;;5054036;28;20036;-58
2020/12/27 15:30:20;;;;;;;;;;;;;;;;;;;;;
2020/12/27 15:33:06;;;;;;;;;;;;;;;;;;;;;
2020/12/27 15:35:55;;;;;;;5.63;3.40;;;;;;;;;;5066708;28;20055;-57
2020/12/27 15:38:48;;;;;;;;;;;;;;;;;;;;;
2020/12/27 15:41:23;;;;;;;3.47;2.83;;;;;;;;;;5065322;28;20132;-57
2020/12/27 15:47:40;;;;;;;4.67;3.33;;;;;;;;;;4997616;28;20074;-57
2020/12/27 15:50:23;;;;;;;3.90;3.42;;;;;;;;;;5006921;28;20034;-57
2020/12/27 15:53:27;;;;;;;;;;;;;;;;;;;;;
2020/12/27 16:02:26;;;;;;;;;;;;;;;;;;;;;
2020/12/27 16:05:43;;;;;;;;;;;;;;;;;;;;;
2020/12/27 16:08:59;;;;;;;;;;;;;;;;;;;;;
2020/12/27 16:11:55;;;;;;;3.00;2.30;;;;;;;;;;4947231;28;20344;-57
2020/12/27 16:14:46;;;;;;;8.50;3.03;;;;;;;;;;4958465;28;20046;-57
2020/12/27 16:20:38;;;;;;;5.95;2.78;;;;;;;;;;5045461;28;20031;-56
2020/12/27 16:23:07;;;;;;;;;;;;;;;;;;5041949;28;20402;-57
2020/12/27 16:25:54;;;;;;;3.73;2.73;;;;;;;;;;5058001;28;20369;-57
2020/12/27 16:31:50;;;;;;;2.78;2.17;;;;;;;;;;5050512;28;20036;-57
2020/12/27 16:34:25;;;;;;;2.73;2.23;;;;;;;;;;5050897;28;20037;-57
2020/12/27 16:37:36;;;;;;;4.80;3.43;;;;;;;;;;5043501;28;20477;-57
2020/12/27 16:40:26;;;;;;;6.50;2.60;;;;;;;;;;5017974;28;20098;-56
2020/12/27 16:43:12;;;;;;;3.75;2.83;;;;;;;;;;5052983;28;20398;-57
2020/12/27 16:46:13;;;;;;;5.13;3.53;;;;;;;;;;5052920;28;20033;-58
2020/12/27 16:51:53;;;;;;;3.60;2.27;;;;;;;;;;5058726;28;20047;-57
2020/12/27 17:00:55;;;;;;;2.77;2.10;;;;;;;;;;5034600;28;20141;-58
2020/12/27 17:06:40;;;;;;;5.60;3.17;;;;;;;;;;5010698;28;20048;-58
2020/12/27 17:09:45;;;;;;;5.97;3.75;;;;;;;;;;5048017;28;20037;-58
2020/12/27 17:12:29;;;;;;;5.60;3.30;;;;;;;;;;5047754;28;20037;-58
2020/12/27 17:18:13;;;;;;;4.43;3.37;;;;;;;;;;5043026;28;20036;-57
2020/12/27 17:20:42;;;;;;;2.70;1.63;;;;;;;;;;5062245;28;20529;-56
2020/12/27 17:23:44;;;;;;;6.30;4.33;;;;;;;;;;5052257;28;20276;-58
2020/12/27 17:26:39;;;;;;;4.67;2.77;;;;;;;;;;4971508;28;20606;-57
2020/12/27 17:38:25;;;;;;;;;;;;;;;;;;;;;
2020/12/27 17:41:00;;;;;;;4.07;3.07;;;;;;;;;;5057642;28;20112;-58
2020/12/27 17:43:56;;;;;;;3.50;2.33;;;;;;;;;;5051962;28;20045;-57
2020/12/27 17:46:44;;;;;;;4.63;2.60;;;;;;;;;;4997316;28;20038;-54
2020/12/27 17:49:44;;;;;;;;;;;;;;;;;;;;;
2020/12/27 17:52:13;;;;;;;2.75;2.00;;;;;;;;;;5038271;28;20025;-58
2020/12/27 17:54:56;;;;;;;3.80;2.00;;;;;;;;;;5062510;28;20044;-55
2020/12/27 17:57:41;;;;;;;3.33;1.97;;;;;;;;;;5064589;28;20059;-56
2020/12/27 18:00:41;;;;;;;;;;;;;;;;;;;;;
2020/12/27 18:03:43;;;;;;;2.65;1.58;;;;;;;;;;5052651;28;20055;-57
2020/12/27 18:12:07;;;;;;;4.47;2.50;;;;;;;;;;5052295;28;20040;-58
2020/12/27 18:18:26;;;;;;;4.00;2.30;;;;;;;;;;5035561;28;20465;-58
2020/12/27 18:20:58;;;;;;;4.70;2.80;;;;;;;;;;5063990;28;20037;-55
2020/12/27 18:26:29;;;;;;;3.37;2.00;;;;;;;;;;5056266;28;20471;-55
2020/12/27 18:28:59;;;;;;;5.90;2.20;;;;;;;;;;5073827;28;20050;-54
2020/12/27 18:31:46;;;;;;;2.67;1.77;;;;;;;;;;5058604;28;20487;-58
2020/12/27 18:34:52;;;;;;;1.97;1.60;;;;;;;;;;5033296;28;20501;-57
2020/12/27 18:38:06;;;;;;;2.73;1.63;;;;;;;;;;5064972;28;20032;-56
2020/12/27 18:41:19;;;;;;;;;;;;;;;;;;;;;
2020/12/27 18:44:15;;;;;;;4.87;2.40;;;;;;;;;;5056245;28;20086;-57
2020/12/27 18:50:03;;;;;;;4.77;1.73;;;;;;;;;;5071276;28;21305;-57
2020/12/27 18:53:01;;;;;;;3.57;1.50;;;;;;;;;;5054920;28;20106;-58
2020/12/27 18:58:54;;;;;;;3.60;1.97;;;;;;;;;;5061226;28;20394;-58
2020/12/27 19:01:23;;;;;;;1.97;1.20;;;;;;;;;;5043584;28;20035;-56
2020/12/27 19:04:07;;;;;;;2.27;1.40;;;;;;;;;;5062127;28;20037;-58
2020/12/27 19:06:41;;;;;;;2.97;1.50;;;;;;;;;;5067352;28;20571;-58
2020/12/27 19:12:17;;;;;;;3.33;1.40;;;;;;;;;;5059227;28;20517;-58
2020/12/27 19:18:09;;;;;;;2.57;1.60;;;;;;;;;;5047236;28;20504;-58
2020/12/27 19:20:47;;;;;;;3.90;1.80;;;;;;;;;;5067124;28;20013;-56
2020/12/27 19:23:33;;;;;;;6.93;2.70;;;;;;;;;;5071142;28;20096;-58
2020/12/27 19:26:18;;;;;;;3.43;2.33;;;;;;;;;;5043792;28;20523;-58
2020/12/27 19:32:30;;;;;;;3.23;1.80;;;;;;;;;;5053891;28;20039;-55
2020/12/27 19:35:09;;;;;;;4.00;2.13;;;;;;;;;;5067408;28;20100;-58
2020/12/27 19:38:02;;;;;;;4.00;2.17;;;;;;;;;;5067600;28;20387;-59
2020/12/27 19:40:54;;;;;;;3.67;1.50;;;;;;;;;;5071701;28;20036;-57
2020/12/27 19:46:50;;;;;;;4.90;1.95;;;;;;;;;;5064318;28;20083;-58
2020/12/27 19:49:26;;;;;;;5.73;2.30;;;;;;;;;;5039100;28;20570;-58
2020/12/27 19:58:22;;;;;;;2.73;1.90;;;;;;;;;;4999128;28;20033;-56
2020/12/27 20:01:04;;;;;;;;;;;;;;;;;;;;;
2020/12/27 20:03:40;;;;;;;4.57;2.13;;;;;;;;;;4990488;28;20042;-57
2020/12/27 20:06:12;;;;;;;1.87;1.37;;;;;;;;;;4997759;28;20033;-58
2020/12/27 20:08:38;;;;;;;3.57;2.10;;;;;;;;;;4995290;28;20030;-58
2020/12/27 20:11:27;;;;;;;3.17;2.20;;;;;;;;;;5058664;28;20442;-58
2020/12/27 20:14:11;;;;;;;2.70;1.60;;;;;;;;;;5067993;28;20033;-57
2020/12/27 20:17:05;;;;;;;3.90;1.87;;;;;;;;;;5051790;28;20390;-58
2020/12/27 20:19:49;;;;;;;5.63;3.13;;;;;;;;;;5061758;28;20039;-57
2020/12/27 20:22:28;;;;;;;3.53;1.70;;;;;;;;;;5064564;28;20025;-58
2020/12/27 20:25:22;;;;;;;2.60;1.67;;;;;;;;;;5050533;28;20037;-58
2020/12/27 20:28:12;;;;;;;3.23;1.80;;;;;;;;;;5051878;28;20470;-57
2020/12/27 20:30:53;;;;;;;3.67;2.05;;;;;;;;;;5052977;28;20036;-58
2020/12/27 20:33:39;;;;;;;2.97;1.98;;;;;;;;;;5057930;28;20055;-57
2020/12/27 20:36:23;;;;;;;2.60;1.43;;;;;;;;;;5062214;28;20115;-57
2020/12/27 20:39:27;;;;;;;;;;;;;;;;;;;;;
2020/12/27 20:42:16;;;;;;;1.97;1.40;;;;;;;;;;5022602;28;20041;-56
2020/12/27 20:45:11;;;;;;;3.33;2.00;;;;;;;;;;5048210;28;20505;-58
2020/12/27 20:47:49;;;;;;;2.63;1.70;;;;;;;;;;4977292;28;20082;-55
2020/12/27 20:50:54;;;;;;;1.93;1.23;;;;;;;;;;4972297;28;20027;-58
2020/12/27 20:53:44;;;;;;;;;;;;;;;;;;;;;
2020/12/27 20:56:48;;;;;;;3.00;1.63;;;;;;;;;;4982576;28;20041;-57
2020/12/27 21:05:13;;;;;;;3.03;1.73;;;;;;;;;;5057339;28;20044;-56
2020/12/27 21:08:14;;;;;;;3.57;1.90;;;;;;;;;;5049899;28;20566;-55
2020/12/27 21:13:46;;;;;;;4.23;2.20;;;;;;;;;;5068982;28;20044;-57
2020/12/27 21:16:53;;;;;;;4.77;2.40;;;;;;;;;;5058411;28;20031;-57
2020/12/27 21:19:55;;;;;;;4.70;2.57;;;;;;;;;;5046920;28;20495;-57
2020/12/27 21:22:56;;;;;;;2.57;1.37;;;;;;;;;;5055623;28;20545;-56
2020/12/27 21:25:49;;;;;;;3.13;1.60;;;;;;;;;;4987087;28;20057;-57
2020/12/27 21:28:33;;;;;;;1.60;0.60;;;;;;;;;;4962657;28;20536;-57
2020/12/27 21:31:22;;;;;;;;;;;;;;;;;;;;;
2020/12/27 21:34:26;;;;;;;2.40;1.27;;;;;;;;;;4941148;29;20373;-57
2020/12/27 21:37:21;;;;;;;1.60;0.80;;;;;;;;;;4912667;29;20521;-58
2020/12/27 21:46:19;;;;;;;2.87;1.10;;;;;;;;;;5026942;28;20384;-57
2020/12/27 21:51:59;;;;;;;1.17;0.47;;;;;;;;;;5030754;28;20030;-58
2020/12/27 21:54:35;;;;;;;0.63;0.40;;;;;;;;;;5028466;28;20293;-57
2020/12/27 21:57:21;;;;;;;;;;;;;;;;;;;;;
2020/12/27 22:00:08;;;;;;;0.67;0.40;;;;;;;;;;5011800;28;20046;-57
2020/12/27 22:03:01;;;;;;;1.00;0.55;;;;;;;;;;5045093;28;20026;-54
2020/12/27 22:05:40;;;;;;;1.13;0.40;;;;;;;;;;5022326;28;20045;-56
2020/12/27 22:08:15;;;;;;;1.23;0.63;;;;;;;;;;5045501;28;20048;-56
2020/12/27 22:11:00;;;;;;;1.33;0.57;;;;;;;;;;5047210;28;20049;-54
2020/12/27 22:14:13;;;;;;;1.45;0.70;;;;;;;;;;5087648;28;20028;-57
2020/12/27 22:19:51;;;;;;;1.92;0.70;;;;;;;;;;4958075;28;20032;-56
2020/12/27 22:22:48;;;;;;;2.00;0.88;;;;;;;;;;5078480;28;20054;-56
2020/12/27 22:25:39;;;;;;;3.17;1.02;;;;;;;;;;5089065;28;20025;-57
2020/12/27 22:31:21;;;;;;;1.13;0.47;;;;;;;;;;5080653;28;20040;-56
2020/12/27 22:34:28;;;;;;;0.28;0.22;;;;;;;;;;5086422;28;20084;-56
2020/12/27 22:40:37;;;;;;;;;;;;;;;;;;;;;
2020/12/27 22:43:35;;;;;;;0.32;0.20;;;;;;;;;;5067114;28;20091;-57
2020/12/27 22:46:20;;;;;;;0.50;0.28;;;;;;;;;;5084803;28;20029;-57
2020/12/27 22:52:10;;;;;;;1.00;0.38;;;;;;;;;;5025937;28;20034;-57
2020/12/27 22:54:58;;;;;;;0.60;0.30;;;;;;;;;;5027290;28;20040;-56
2020/12/27 22:57:49;;;;;;;0.28;0.17;;;;;;;;;;5088435;28;20031;-57
2020/12/27 23:00:18;;;;;;;;;;;;;;;;;;5088449;28;20040;-57
2020/12/27 23:03:23;;;;;;;0.32;0.32;;;;;;;;;;5086917;28;19983;-55
2020/12/27 23:09:18;;;;;;;3.92;0.50;;;;;;;;;;5025572;28;20037;-53
2020/12/27 23:17:29;;;;;;;0.95;0.35;;;;;;;;;;5068185;28;20063;-56
2020/12/27 23:28:36;;;;;;;0.83;0.37;;;;;;;;;;5043961;28;20037;-56
2020/12/27 23:31:18;;;;;;;0.50;0.20;;;;;;;;;;5067756;28;20036;-57